createdAt,value
2022-12-31T00:01:05.542Z,101
2022-12-31T00:16:12.561Z,118
2022-12-31T00:31:05.582Z,106
2022-12-31T00:46:05.668Z,92
2022-12-31T01:01:05.985Z,77
2022-12-31T01:16:05.840Z,67
2022-12-31T01:31:04.845Z,59
2022-12-31T01:46:05.070Z,52
2022-12-31T02:01:05.148Z,55
2022-12-31T02:16:05.206Z,46
2022-12-31T02:31:05.218Z,46
2022-12-31T02:46:05.601Z,43
2022-12-31T03:01:06.049Z,36
2022-12-31T03:16:04.988Z,35
2022-12-31T03:31:05.071Z,35
2022-12-31T03:46:05.261Z,36
2022-12-31T04:01:05.512Z,33
2022-12-31T04:16:05.044Z,34
2022-12-31T04:31:05.164Z,28
2022-12-31T04:46:05.628Z,26
2022-12-31T05:01:05.062Z,24
2022-12-31T05:16:04.533Z,26
2022-12-31T05:31:05.736Z,26
2022-12-31T05:46:05.791Z,25
2022-12-31T06:01:04.916Z,25
2022-12-31T06:16:05.665Z,24
2022-12-31T06:31:05.661Z,24
2022-12-31T06:46:06.083Z,21
2022-12-31T07:01:04.972Z,21
2022-12-31T07:16:05.800Z,22
2022-12-31T07:31:05.867Z,24
2022-12-31T07:46:05.320Z,19
2022-12-31T08:01:05.172Z,21
2022-12-31T08:16:06.111Z,23
2022-12-31T08:31:05.247Z,23
2022-12-31T08:46:04.943Z,22
2022-12-31T09:01:05.819Z,20
2022-12-31T09:16:05.666Z,18
2022-12-31T09:31:05.635Z,20
2022-12-31T09:46:05.586Z,21
2022-12-31T10:01:06.148Z,18
2022-12-31T10:16:05.109Z,16
2022-12-31T10:31:05.751Z,17
2022-12-31T10:46:05.714Z,16
2022-12-31T11:01:04.930Z,16
2022-12-31T11:16:05.569Z,24
2022-12-31T11:31:05.883Z,19
2022-12-31T11:46:05.101Z,13
2022-12-31T12:01:05.147Z,14
2022-12-31T12:16:05.235Z,18
2022-12-31T12:31:05.488Z,16
2022-12-31T12:46:05.481Z,21
2022-12-31T13:01:05.223Z,20
2022-12-31T13:16:05.277Z,22
2022-12-31T13:31:07.404Z,16
2022-12-31T13:46:05.063Z,22
2022-12-31T14:01:05.204Z,26
2022-12-31T14:16:05.051Z,19
2022-12-31T14:31:05.608Z,20
2022-12-31T14:46:05.450Z,24
2022-12-31T15:01:05.553Z,22
2022-12-31T15:16:05.793Z,26
2022-12-31T15:31:05.358Z,27
2022-12-31T15:46:05.491Z,27
2022-12-31T16:01:05.641Z,24
2022-12-31T16:16:05.278Z,22
2022-12-31T16:31:05.500Z,24
2022-12-31T16:46:05.385Z,25
2022-12-31T17:01:05.733Z,23
2022-12-31T17:16:05.598Z,30
2022-12-31T17:31:05.080Z,24
2022-12-31T17:46:04.949Z,21
2022-12-31T18:01:05.358Z,18
2022-12-31T18:16:05.382Z,22
2022-12-31T18:31:05.400Z,19
2022-12-31T18:46:05.634Z,24
2022-12-31T19:01:05.942Z,26
2022-12-31T19:16:05.001Z,25
2022-12-31T19:31:05.529Z,26
2022-12-31T19:46:05.571Z,22
2022-12-31T20:01:05.689Z,19
2022-12-31T20:16:05.644Z,20
2022-12-31T20:31:05.109Z,17
2022-12-31T20:46:15.127Z,18
2022-12-31T21:01:05.912Z,17
2022-12-31T21:16:04.981Z,14
2022-12-31T21:31:04.951Z,16
2022-12-31T21:46:05.344Z,14
2022-12-31T22:01:05.389Z,17
2022-12-31T22:16:06.384Z,16
2022-12-31T22:31:04.829Z,21
2022-12-31T22:46:05.392Z,21
2022-12-31T23:01:05.886Z,29
2022-12-31T23:16:05.233Z,83
2022-12-31T23:31:05.605Z,54
2022-12-31T23:46:04.793Z,43
